Catherine — WCW3931 — position and weather

sailwx.info

Track history (hours):
 
Tides and Currents Weather Stations Pressure Air Temp Water Temp Dewpoint Dewpoint Depression Visibility Wind Speed Wind Dir Waves Ship Positions

Catherine

Owner: BLESSEY ENTERPRISES INC, HARAHAN, LA. More information available from US FCC via Universal Licensing System.

Last reported at 2017-Nov-18 10:40 UTC. Time now 2017-Nov-24 14:49 UTC.
Position N 30°04' W 093°28'.

Length 21 m; draft 3.3 m.

Type: Tug. MMSI: 366935380.

Date/timePositionNaut miles runAvg speedWind from/ knotsBaromVisibWave heightAir tempDewpointWater temp
2017-Nov-18 10:40N 30°04' W 093°28'1 6.4
2017-Nov-18 10:30N 30°04' W 093°27'3 6.2
2017-Nov-18 10:00N 30°04' W 093°23'2 4.6
2017-Nov-18 09:30N 30°04' W 093°20'2 4.8
2017-Nov-18 09:00N 30°06' W 093°18'1 3.0
2017-Nov-18 08:30N 30°05' W 093°17'2 3.0
2017-Nov-18 08:00N 30°04' W 093°16'0 0.5
2017-Nov-18 07:30N 30°03' W 093°16'0 0.0
2017-Nov-18 07:00N 30°03' W 093°16'0 0.0
2017-Nov-18 06:30N 30°03' W 093°16'0 0.0
2017-Nov-18 06:00N 30°03' W 093°16'0 0.0
2017-Nov-18 05:30N 30°03' W 093°16'0 0.0
2017-Nov-18 05:00N 30°03' W 093°16'0 0.0
2017-Nov-18 04:30N 30°03' W 093°16'2 4.5
2017-Nov-18 04:00N 30°02' W 093°14'2 4.6
2017-Nov-18 03:30N 29°60' W 093°13'0 0.6
2017-Nov-18 03:00N 29°59' W 093°13'4 5.7
2017-Nov-18 02:16N 29°56' W 093°10'44 5.7
2017-Nov-17 18:34N 29°50' W 092°20'1 5.9
2017-Nov-17 18:19N 29°50' W 092°18'1 4.8
2017-Nov-17 18:00N 29°49' W 092°17'3 6.3
2017-Nov-17 17:30N 29°48' W 092°14'3 5.7
2017-Nov-17 17:01N 29°47' W 092°11'0 0.0
2017-Nov-17 16:31N 29°47' W 092°11'0 0.5
2017-Nov-17 16:01N 29°47' W 092°10'3 5.4
2017-Nov-17 15:31N 29°47' W 092°08'3 6.0
2017-Nov-17 15:01N 29°48' W 092°04'3 5.7
2017-Nov-17 14:29N 29°49' W 092°01'4 5.7
2017-Nov-17 13:42N 29°51' W 091°56'1 5.9
2017-Nov-17 13:31N 29°51' W 091°55'4 1.4
2017-Nov-17 11:02N 29°51' W 091°51'  
2017-Nov-13 01:59N 29°47' W 092°09'2 3.1
2017-Nov-13 01:17N 29°47' W 092°12'0 0.0
2017-Nov-13 01:00N 29°47' W 092°12'1 1.4
2017-Nov-13 00:30N 29°47' W 092°12'1 2.3
2017-Nov-13 00:00N 29°48' W 092°14'3 5.1
2017-Nov-12 23:20N 29°49' W 092°17'2 4.8
2017-Nov-12 22:58N 29°50' W 092°19'  
2017-Nov-08 16:25N 29°31' W 094°53'3 7.7
2017-Nov-08 16:00N 29°33' W 094°55'3 6.7
2017-Nov-08 15:30N 29°36' W 094°57'4 7.2
2017-Nov-08 15:00N 29°39' W 094°58'4 7.1
2017-Nov-08 14:30N 29°42' W 095°01'3 5.7
2017-Nov-08 14:00N 29°44' W 095°03'2 3.7
2017-Nov-08 13:21N 29°45' W 095°06'0 0.0
2017-Nov-08 13:00N 29°45' W 095°06'0 0.0
2017-Nov-08 12:30N 29°45' W 095°06'0 0.0
2017-Nov-08 11:59N 29°45' W 095°06'0 0.0
2017-Nov-08 11:30N 29°45' W 095°06'0 0.0
2017-Nov-08 11:00N 29°45' W 095°06'  
Track history (hours):
 
Tides and Currents Weather Stations Pressure Air Temp Water Temp Dewpoint Dewpoint Depression Visibility Wind Speed Wind Dir Waves Ship Positions

Catherine

Owner: BLESSEY ENTERPRISES INC, HARAHAN, LA. More information available from US FCC via Universal Licensing System.

Last reported at 2017-Nov-18 10:40 UTC. Time now 2017-Nov-24 14:49 UTC.
Position N 30°04' W 093°28'.

Length 21 m; draft 3.3 m.

Type: Tug. MMSI: 366935380.

Date/timePositionNaut miles runAvg speedWind from/ knotsBaromVisibWave heightAir tempDewpointWater temp
2017-Nov-18 10:40N 30°04' W 093°28'1 6.4
2017-Nov-18 10:30N 30°04' W 093°27'3 6.2
2017-Nov-18 10:00N 30°04' W 093°23'2 4.6
2017-Nov-18 09:30N 30°04' W 093°20'2 4.8
2017-Nov-18 09:00N 30°06' W 093°18'1 3.0
2017-Nov-18 08:30N 30°05' W 093°17'2 3.0
2017-Nov-18 08:00N 30°04' W 093°16'0 0.5
2017-Nov-18 07:30N 30°03' W 093°16'0 0.0
2017-Nov-18 07:00N 30°03' W 093°16'0 0.0
2017-Nov-18 06:30N 30°03' W 093°16'0 0.0
2017-Nov-18 06:00N 30°03' W 093°16'0 0.0
2017-Nov-18 05:30N 30°03' W 093°16'0 0.0
2017-Nov-18 05:00N 30°03' W 093°16'0 0.0
2017-Nov-18 04:30N 30°03' W 093°16'2 4.5
2017-Nov-18 04:00N 30°02' W 093°14'2 4.6
2017-Nov-18 03:30N 29°60' W 093°13'0 0.6
2017-Nov-18 03:00N 29°59' W 093°13'4 5.7
2017-Nov-18 02:16N 29°56' W 093°10'44 5.7
2017-Nov-17 18:34N 29°50' W 092°20'1 5.9
2017-Nov-17 18:19N 29°50' W 092°18'1 4.8
2017-Nov-17 18:00N 29°49' W 092°17'3 6.3
2017-Nov-17 17:30N 29°48' W 092°14'3 5.7
2017-Nov-17 17:01N 29°47' W 092°11'0 0.0
2017-Nov-17 16:31N 29°47' W 092°11'0 0.5
2017-Nov-17 16:01N 29°47' W 092°10'3 5.4
2017-Nov-17 15:31N 29°47' W 092°08'3 6.0
2017-Nov-17 15:01N 29°48' W 092°04'3 5.7
2017-Nov-17 14:29N 29°49' W 092°01'4 5.7
2017-Nov-17 13:42N 29°51' W 091°56'1 5.9
2017-Nov-17 13:31N 29°51' W 091°55'4 1.4
2017-Nov-17 11:02N 29°51' W 091°51'  
2017-Nov-13 01:59N 29°47' W 092°09'2 3.1
2017-Nov-13 01:17N 29°47' W 092°12'0 0.0
2017-Nov-13 01:00N 29°47' W 092°12'1 1.4
2017-Nov-13 00:30N 29°47' W 092°12'1 2.3
2017-Nov-13 00:00N 29°48' W 092°14'3 5.1
2017-Nov-12 23:20N 29°49' W 092°17'2 4.8
2017-Nov-12 22:58N 29°50' W 092°19'  
2017-Nov-08 16:25N 29°31' W 094°53'3 7.7
2017-Nov-08 16:00N 29°33' W 094°55'3 6.7
2017-Nov-08 15:30N 29°36' W 094°57'4 7.2
2017-Nov-08 15:00N 29°39' W 094°58'4 7.1
2017-Nov-08 14:30N 29°42' W 095°01'3 5.7
2017-Nov-08 14:00N 29°44' W 095°03'2 3.7
2017-Nov-08 13:21N 29°45' W 095°06'0 0.0
2017-Nov-08 13:00N 29°45' W 095°06'0 0.0
2017-Nov-08 12:30N 29°45' W 095°06'0 0.0
2017-Nov-08 11:59N 29°45' W 095°06'0 0.0
2017-Nov-08 11:30N 29°45' W 095°06'0 0.0
2017-Nov-08 11:00N 29°45' W 095°06'  

Dump ship's entire track history